sensor_id;sensor_type;location;lat;lon;timestamp;temperature;humidity
70271;SHT31;57680;54.292;18.598;2023-04-24T00:00:02;11.04;92.81
70271;SHT31;57680;54.292;18.598;2023-04-24T00:02:29;11.03;92.76
70271;SHT31;57680;54.292;18.598;2023-04-24T00:04:54;11.02;92.81
70271;SHT31;57680;54.292;18.598;2023-04-24T00:07:19;11.02;92.89
70271;SHT31;57680;54.292;18.598;2023-04-24T00:09:45;11.00;92.88
70271;SHT31;57680;54.292;18.598;2023-04-24T00:12:11;10.99;92.99
70271;SHT31;57680;54.292;18.598;2023-04-24T00:14:36;10.97;93.13
70271;SHT31;57680;54.292;18.598;2023-04-24T00:17:02;11.00;93.24
70271;SHT31;57680;54.292;18.598;2023-04-24T00:19:28;11.02;93.39
70271;SHT31;57680;54.292;18.598;2023-04-24T00:21:54;11.02;93.27
70271;SHT31;57680;54.292;18.598;2023-04-24T00:24:20;11.03;93.30
70271;SHT31;57680;54.292;18.598;2023-04-24T00:26:45;11.06;93.36
70271;SHT31;57680;54.292;18.598;2023-04-24T00:29:11;11.07;93.31
70271;SHT31;57680;54.292;18.598;2023-04-24T00:31:36;11.12;93.32
70271;SHT31;57680;54.292;18.598;2023-04-24T00:34:03;11.10;93.30
70271;SHT31;57680;54.292;18.598;2023-04-24T00:36:28;11.10;93.29
70271;SHT31;57680;54.292;18.598;2023-04-24T00:38:54;11.12;93.30
70271;SHT31;57680;54.292;18.598;2023-04-24T00:41:21;11.12;93.38
70271;SHT31;57680;54.292;18.598;2023-04-24T00:43:46;11.12;93.44
70271;SHT31;57680;54.292;18.598;2023-04-24T00:46:12;11.12;93.54
70271;SHT31;57680;54.292;18.598;2023-04-24T00:48:40;11.13;93.67
70271;SHT31;57680;54.292;18.598;2023-04-24T00:51:06;11.06;93.75
70271;SHT31;57680;54.292;18.598;2023-04-24T00:53:32;11.00;93.62
70271;SHT31;57680;54.292;18.598;2023-04-24T00:55:57;10.91;93.69
70271;SHT31;57680;54.292;18.598;2023-04-24T00:58:23;10.79;93.94
70271;SHT31;57680;54.292;18.598;2023-04-24T01:00:49;10.73;94.29
70271;SHT31;57680;54.292;18.598;2023-04-24T01:03:15;10.64;94.26
70271;SHT31;57680;54.292;18.598;2023-04-24T01:05:41;10.58;94.48
70271;SHT31;57680;54.292;18.598;2023-04-24T01:08:07;10.54;94.52
70271;SHT31;57680;54.292;18.598;2023-04-24T01:10:33;10.51;94.63
70271;SHT31;57680;54.292;18.598;2023-04-24T01:13:00;10.46;94.71
70271;SHT31;57680;54.292;18.598;2023-04-24T01:15:25;10.42;94.71
70271;SHT31;57680;54.292;18.598;2023-04-24T01:17:51;10.38;94.75
70271;SHT31;57680;54.292;18.598;2023-04-24T01:20:17;10.33;94.84
70271;SHT31;57680;54.292;18.598;2023-04-24T01:22:42;10.30;94.83
70271;SHT31;57680;54.292;18.598;2023-04-24T01:25:08;10.25;94.92
70271;SHT31;57680;54.292;18.598;2023-04-24T01:27:34;10.25;94.97
70271;SHT31;57680;54.292;18.598;2023-04-24T01:29:59;10.24;95.10
70271;SHT31;57680;54.292;18.598;2023-04-24T01:32:25;10.25;95.05
70271;SHT31;57680;54.292;18.598;2023-04-24T01:34:51;10.28;94.88
70271;SHT31;57680;54.292;18.598;2023-04-24T01:37:17;10.25;94.98
70271;SHT31;57680;54.292;18.598;2023-04-24T01:39:43;10.27;94.91
70271;SHT31;57680;54.292;18.598;2023-04-24T01:42:09;10.27;95.01
70271;SHT31;57680;54.292;18.598;2023-04-24T01:44:34;10.25;95.02
70271;SHT31;57680;54.292;18.598;2023-04-24T01:47:00;10.25;95.09
70271;SHT31;57680;54.292;18.598;2023-04-24T01:49:26;10.24;95.02
70271;SHT31;57680;54.292;18.598;2023-04-24T01:51:52;10.22;95.08
70271;SHT31;57680;54.292;18.598;2023-04-24T01:54:17;10.27;94.92
70271;SHT31;57680;54.292;18.598;2023-04-24T01:56:43;10.22;95.11
70271;SHT31;57680;54.292;18.598;2023-04-24T01:59:10;10.25;95.24
70271;SHT31;57680;54.292;18.598;2023-04-24T02:01:36;10.24;95.09
70271;SHT31;57680;54.292;18.598;2023-04-24T02:04:02;10.25;95.18
70271;SHT31;57680;54.292;18.598;2023-04-24T02:06:27;10.22;95.25
70271;SHT31;57680;54.292;18.598;2023-04-24T02:08:53;10.21;95.20
70271;SHT31;57680;54.292;18.598;2023-04-24T02:11:18;10.21;95.21
70271;SHT31;57680;54.292;18.598;2023-04-24T02:13:44;10.17;95.00
70271;SHT31;57680;54.292;18.598;2023-04-24T02:16:09;10.14;95.12
70271;SHT31;57680;54.292;18.598;2023-04-24T02:18:35;10.14;95.11
70271;SHT31;57680;54.292;18.598;2023-04-24T02:21:01;10.14;95.10
70271;SHT31;57680;54.292;18.598;2023-04-24T02:23:27;10.11;95.24
70271;SHT31;57680;54.292;18.598;2023-04-24T02:25:52;10.11;95.26
70271;SHT31;57680;54.292;18.598;2023-04-24T02:28:18;10.11;95.07
70271;SHT31;57680;54.292;18.598;2023-04-24T02:30:44;10.08;95.03
70271;SHT31;57680;54.292;18.598;2023-04-24T02:33:11;10.07;94.94
70271;SHT31;57680;54.292;18.598;2023-04-24T02:35:36;10.05;94.79
70271;SHT31;57680;54.292;18.598;2023-04-24T02:38:02;10.04;94.81
70271;SHT31;57680;54.292;18.598;2023-04-24T02:40:27;10.00;94.74
70271;SHT31;57680;54.292;18.598;2023-04-24T02:42:53;9.94;94.93
70271;SHT31;57680;54.292;18.598;2023-04-24T02:45:18;9.93;94.87
70271;SHT31;57680;54.292;18.598;2023-04-24T02:47:44;9.90;94.94
70271;SHT31;57680;54.292;18.598;2023-04-24T02:50:09;9.89;94.91
70271;SHT31;57680;54.292;18.598;2023-04-24T02:52:35;9.87;95.00
70271;SHT31;57680;54.292;18.598;2023-04-24T02:55:00;9.86;94.91
70271;SHT31;57680;54.292;18.598;2023-04-24T02:57:26;9.80;94.80
70271;SHT31;57680;54.292;18.598;2023-04-24T02:59:51;9.73;94.92
70271;SHT31;57680;54.292;18.598;2023-04-24T03:02:17;9.74;94.87
70271;SHT31;57680;54.292;18.598;2023-04-24T03:04:42;9.73;95.02
70271;SHT31;57680;54.292;18.598;2023-04-24T03:07:08;9.69;95.08
70271;SHT31;57680;54.292;18.598;2023-04-24T03:09:33;9.67;95.07
70271;SHT31;57680;54.292;18.598;2023-04-24T03:11:59;9.67;95.05
70271;SHT31;57680;54.292;18.598;2023-04-24T03:14:24;9.69;94.98
70271;SHT31;57680;54.292;18.598;2023-04-24T03:16:50;9.65;94.86
70271;SHT31;57680;54.292;18.598;2023-04-24T03:19:15;9.60;94.95
70271;SHT31;57680;54.292;18.598;2023-04-24T03:21:41;9.57;95.02
70271;SHT31;57680;54.292;18.598;2023-04-24T03:24:07;9.56;95.08
70271;SHT31;57680;54.292;18.598;2023-04-24T03:26:32;9.55;95.07
70271;SHT31;57680;54.292;18.598;2023-04-24T03:28:58;9.53;95.13
70271;SHT31;57680;54.292;18.598;2023-04-24T03:31:24;9.53;95.19
70271;SHT31;57680;54.292;18.598;2023-04-24T03:33:49;9.50;95.16
70271;SHT31;57680;54.292;18.598;2023-04-24T03:36:14;9.53;95.31
70271;SHT31;57680;54.292;18.598;2023-04-24T03:38:41;9.49;95.00
70271;SHT31;57680;54.292;18.598;2023-04-24T03:41:06;9.47;94.97
70271;SHT31;57680;54.292;18.598;2023-04-24T03:43:31;9.49;95.05
70271;SHT31;57680;54.292;18.598;2023-04-24T03:45:57;9.43;95.03
70271;SHT31;57680;54.292;18.598;2023-04-24T03:48:22;9.43;94.97
70271;SHT31;57680;54.292;18.598;2023-04-24T03:50:47;9.36;95.12
70271;SHT31;57680;54.292;18.598;2023-04-24T03:53:13;9.34;95.06
70271;SHT31;57680;54.292;18.598;2023-04-24T03:55:39;9.31;95.23
70271;SHT31;57680;54.292;18.598;2023-04-24T03:58:05;9.31;95.26
70271;SHT31;57680;54.292;18.598;2023-04-24T04:00:30;9.28;95.20
70271;SHT31;57680;54.292;18.598;2023-04-24T04:02:55;9.25;95.10
70271;SHT31;57680;54.292;18.598;2023-04-24T04:05:21;9.25;95.17
70271;SHT31;57680;54.292;18.598;2023-04-24T04:07:46;9.25;95.24
70271;SHT31;57680;54.292;18.598;2023-04-24T04:10:12;9.24;95.21
70271;SHT31;57680;54.292;18.598;2023-04-24T04:12:37;9.26;95.05
70271;SHT31;57680;54.292;18.598;2023-04-24T04:15:03;9.29;94.99
70271;SHT31;57680;54.292;18.598;2023-04-24T04:17:28;9.29;95.11
70271;SHT31;57680;54.292;18.598;2023-04-24T04:19:54;9.26;95.17
70271;SHT31;57680;54.292;18.598;2023-04-24T04:22:19;9.24;95.16
70271;SHT31;57680;54.292;18.598;2023-04-24T04:24:45;9.22;95.28
70271;SHT31;57680;54.292;18.598;2023-04-24T04:27:10;9.22;95.24
70271;SHT31;57680;54.292;18.598;2023-04-24T04:29:35;9.22;95.16
70271;SHT31;57680;54.292;18.598;2023-04-24T04:32:01;9.24;95.24
70271;SHT31;57680;54.292;18.598;2023-04-24T04:34:27;9.26;95.27
70271;SHT31;57680;54.292;18.598;2023-04-24T04:36:52;9.31;95.03
70271;SHT31;57680;54.292;18.598;2023-04-24T04:39:18;9.32;94.94
70271;SHT31;57680;54.292;18.598;2023-04-24T04:41:43;9.39;94.91
70271;SHT31;57680;54.292;18.598;2023-04-24T04:44:09;9.45;94.63
70271;SHT31;57680;54.292;18.598;2023-04-24T04:46:34;9.47;94.56
70271;SHT31;57680;54.292;18.598;2023-04-24T04:49:01;9.49;94.38
70271;SHT31;57680;54.292;18.598;2023-04-24T04:51:27;9.56;94.50
70271;SHT31;57680;54.292;18.598;2023-04-24T04:53:53;9.60;94.35
70271;SHT31;57680;54.292;18.598;2023-04-24T04:56:18;9.65;94.00
70271;SHT31;57680;54.292;18.598;2023-04-24T04:58:44;9.66;94.06
70271;SHT31;57680;54.292;18.598;2023-04-24T05:01:10;9.67;93.94
70271;SHT31;57680;54.292;18.598;2023-04-24T05:03:35;9.73;93.74
70271;SHT31;57680;54.292;18.598;2023-04-24T05:06:00;9.84;93.67
70271;SHT31;57680;54.292;18.598;2023-04-24T05:08:26;9.89;93.18
70271;SHT31;57680;54.292;18.598;2023-04-24T05:10:51;9.96;92.93
70271;SHT31;57680;54.292;18.598;2023-04-24T05:13:16;10.04;92.77
70271;SHT31;57680;54.292;18.598;2023-04-24T05:15:42;10.13;92.49
70271;SHT31;57680;54.292;18.598;2023-04-24T05:18:07;10.15;92.36
70271;SHT31;57680;54.292;18.598;2023-04-24T05:20:33;10.22;91.64
70271;SHT31;57680;54.292;18.598;2023-04-24T05:22:58;10.24;91.63
70271;SHT31;57680;54.292;18.598;2023-04-24T05:25:24;10.22;91.11
70271;SHT31;57680;54.292;18.598;2023-04-24T05:27:49;10.22;90.98
70271;SHT31;57680;54.292;18.598;2023-04-24T05:30:14;10.24;90.82
70271;SHT31;57680;54.292;18.598;2023-04-24T05:32:40;10.28;91.00
70271;SHT31;57680;54.292;18.598;2023-04-24T05:35:05;10.34;90.52
70271;SHT31;57680;54.292;18.598;2023-04-24T05:37:31;10.37;90.16
70271;SHT31;57680;54.292;18.598;2023-04-24T05:39:56;10.31;89.50
70271;SHT31;57680;54.292;18.598;2023-04-24T05:42:22;10.24;89.68
70271;SHT31;57680;54.292;18.598;2023-04-24T05:44:47;10.18;89.79
70271;SHT31;57680;54.292;18.598;2023-04-24T05:47:13;10.17;90.28
70271;SHT31;57680;54.292;18.598;2023-04-24T05:49:38;10.17;89.79
70271;SHT31;57680;54.292;18.598;2023-04-24T05:52:04;10.15;89.56
70271;SHT31;57680;54.292;18.598;2023-04-24T05:54:29;10.13;89.46
70271;SHT31;57680;54.292;18.598;2023-04-24T05:56:55;10.13;89.66
70271;SHT31;57680;54.292;18.598;2023-04-24T05:59:20;10.17;89.95
70271;SHT31;57680;54.292;18.598;2023-04-24T06:01:45;10.18;89.76
70271;SHT31;57680;54.292;18.598;2023-04-24T06:04:12;10.24;89.60
70271;SHT31;57680;54.292;18.598;2023-04-24T06:06:37;10.34;89.09
70271;SHT31;57680;54.292;18.598;2023-04-24T06:09:03;10.46;89.24
70271;SHT31;57680;54.292;18.598;2023-04-24T06:11:28;10.55;88.77
70271;SHT31;57680;54.292;18.598;2023-04-24T06:13:53;10.58;88.34
70271;SHT31;57680;54.292;18.598;2023-04-24T06:16:19;10.64;88.24
70271;SHT31;57680;54.292;18.598;2023-04-24T06:18:44;10.64;88.09
70271;SHT31;57680;54.292;18.598;2023-04-24T06:21:10;10.61;88.12
70271;SHT31;57680;54.292;18.598;2023-04-24T06:23:35;10.58;88.44
70271;SHT31;57680;54.292;18.598;2023-04-24T06:26:01;10.55;88.18
70271;SHT31;57680;54.292;18.598;2023-04-24T06:28:26;10.58;88.46
70271;SHT31;57680;54.292;18.598;2023-04-24T06:30:52;10.51;88.34
70271;SHT31;57680;54.292;18.598;2023-04-24T06:33:17;10.49;88.62
70271;SHT31;57680;54.292;18.598;2023-04-24T06:35:43;10.42;88.97
70271;SHT31;57680;54.292;18.598;2023-04-24T06:38:08;10.45;89.23
70271;SHT31;57680;54.292;18.598;2023-04-24T06:40:33;10.42;89.43
70271;SHT31;57680;54.292;18.598;2023-04-24T06:42:59;10.40;89.74
70271;SHT31;57680;54.292;18.598;2023-04-24T06:45:24;10.31;89.96
70271;SHT31;57680;54.292;18.598;2023-04-24T06:47:50;10.25;90.21
70271;SHT31;57680;54.292;18.598;2023-04-24T06:50:15;10.20;90.82
70271;SHT31;57680;54.292;18.598;2023-04-24T06:52:41;10.20;91.07
70271;SHT31;57680;54.292;18.598;2023-04-24T06:55:07;10.18;91.36
70271;SHT31;57680;54.292;18.598;2023-04-24T06:57:32;10.22;92.00
70271;SHT31;57680;54.292;18.598;2023-04-24T06:59:58;10.21;92.09
70271;SHT31;57680;54.292;18.598;2023-04-24T07:02:24;10.25;92.48
70271;SHT31;57680;54.292;18.598;2023-04-24T07:04:50;10.25;92.41
70271;SHT31;57680;54.292;18.598;2023-04-24T07:07:15;10.21;92.03
70271;SHT31;57680;54.292;18.598;2023-04-24T07:09:40;10.24;91.86
70271;SHT31;57680;54.292;18.598;2023-04-24T07:12:06;10.27;91.96
70271;SHT31;57680;54.292;18.598;2023-04-24T07:14:31;10.25;92.05
70271;SHT31;57680;54.292;18.598;2023-04-24T07:16:57;10.31;92.32
70271;SHT31;57680;54.292;18.598;2023-04-24T07:19:22;10.28;92.19
70271;SHT31;57680;54.292;18.598;2023-04-24T07:21:48;10.33;92.30
70271;SHT31;57680;54.292;18.598;2023-04-24T07:24:13;10.33;92.07
70271;SHT31;57680;54.292;18.598;2023-04-24T07:26:39;10.38;92.18
70271;SHT31;57680;54.292;18.598;2023-04-24T07:29:04;10.37;92.16
70271;SHT31;57680;54.292;18.598;2023-04-24T07:31:30;10.44;92.32
70271;SHT31;57680;54.292;18.598;2023-04-24T07:33:55;10.49;92.06
70271;SHT31;57680;54.292;18.598;2023-04-24T07:36:20;10.55;92.31
70271;SHT31;57680;54.292;18.598;2023-04-24T07:38:46;10.59;91.92
70271;SHT31;57680;54.292;18.598;2023-04-24T07:41:13;10.69;92.56
70271;SHT31;57680;54.292;18.598;2023-04-24T07:43:38;10.76;91.49
70271;SHT31;57680;54.292;18.598;2023-04-24T07:46:04;10.93;91.80
70271;SHT31;57680;54.292;18.598;2023-04-24T07:48:29;10.99;91.11
70271;SHT31;57680;54.292;18.598;2023-04-24T08:00:09;11.43;91.77
70271;SHT31;57680;54.292;18.598;2023-04-24T08:02:34;11.38;90.55
70271;SHT31;57680;54.292;18.598;2023-04-24T08:05:00;11.53;91.51
70271;SHT31;57680;54.292;18.598;2023-04-24T08:07:25;11.63;91.35
70271;SHT31;57680;54.292;18.598;2023-04-24T08:09:51;11.79;91.32
70271;SHT31;57680;54.292;18.598;2023-04-24T08:12:16;11.81;90.58
70271;SHT31;57680;54.292;18.598;2023-04-24T08:14:42;11.79;90.30
70271;SHT31;57680;54.292;18.598;2023-04-24T08:17:07;11.77;90.08
70271;SHT31;57680;54.292;18.598;2023-04-24T08:19:33;11.89;91.23
70271;SHT31;57680;54.292;18.598;2023-04-24T08:21:58;12.02;90.69
70271;SHT31;57680;54.292;18.598;2023-04-24T08:24:23;12.19;89.63
70271;SHT31;57680;54.292;18.598;2023-04-24T08:26:49;12.57;90.41
70271;SHT31;57680;54.292;18.598;2023-04-24T08:29:15;12.87;89.79
70271;SHT31;57680;54.292;18.598;2023-04-24T08:31:40;13.49;89.15
70271;SHT31;57680;54.292;18.598;2023-04-24T08:34:05;13.96;87.89
70271;SHT31;57680;54.292;18.598;2023-04-24T08:36:31;14.02;84.56
70271;SHT31;57680;54.292;18.598;2023-04-24T08:38:57;13.87;83.83
70271;SHT31;57680;54.292;18.598;2023-04-24T08:41:23;14.06;85.65
70271;SHT31;57680;54.292;18.598;2023-04-24T08:43:50;14.16;83.87
70271;SHT31;57680;54.292;18.598;2023-04-24T08:46:16;14.35;84.26
70271;SHT31;57680;54.292;18.598;2023-04-24T08:48:42;15.03;84.35
70271;SHT31;57680;54.292;18.598;2023-04-24T08:51:08;14.96;84.09
70271;SHT31;57680;54.292;18.598;2023-04-24T08:53:34;14.71;82.97
70271;SHT31;57680;54.292;18.598;2023-04-24T08:56:00;14.83;83.52
70271;SHT31;57680;54.292;18.598;2023-04-24T08:58:27;14.82;83.39
70271;SHT31;57680;54.292;18.598;2023-04-24T09:00:56;14.96;83.24
70271;SHT31;57680;54.292;18.598;2023-04-24T09:03:22;14.85;82.81
70271;SHT31;57680;54.292;18.598;2023-04-24T09:05:49;14.61;83.69
70271;SHT31;57680;54.292;18.598;2023-04-24T09:08:16;14.38;83.08
70271;SHT31;57680;54.292;18.598;2023-04-24T09:10:42;14.44;83.84
70271;SHT31;57680;54.292;18.598;2023-04-24T09:13:08;14.40;84.00
70271;SHT31;57680;54.292;18.598;2023-04-24T09:15:33;14.37;84.61
70271;SHT31;57680;54.292;18.598;2023-04-24T09:17:58;14.42;83.64
70271;SHT31;57680;54.292;18.598;2023-04-24T09:20:24;14.48;83.71
70271;SHT31;57680;54.292;18.598;2023-04-24T09:22:53;14.45;83.32
70271;SHT31;57680;54.292;18.598;2023-04-24T09:25:19;14.52;83.08
70271;SHT31;57680;54.292;18.598;2023-04-24T09:27:45;14.67;83.63
70271;SHT31;57680;54.292;18.598;2023-04-24T09:30:11;14.64;82.80
70271;SHT31;57680;54.292;18.598;2023-04-24T09:32:36;14.49;82.00
70271;SHT31;57680;54.292;18.598;2023-04-24T09:37:45;14.27;83.74
70271;SHT31;57680;54.292;18.598;2023-04-24T09:40:19;14.16;83.92
70271;SHT31;57680;54.292;18.598;2023-04-24T09:42:53;14.44;84.34
70271;SHT31;57680;54.292;18.598;2023-04-24T09:45:19;14.52;82.60
70271;SHT31;57680;54.292;18.598;2023-04-24T09:47:44;14.54;84.20
70271;SHT31;57680;54.292;18.598;2023-04-24T09:52:39;15.02;83.76
70271;SHT31;57680;54.292;18.598;2023-04-24T09:55:11;15.29;82.55
70271;SHT31;57680;54.292;18.598;2023-04-24T09:57:49;15.58;82.19
70271;SHT31;57680;54.292;18.598;2023-04-24T10:00:25;15.84;80.83
70271;SHT31;57680;54.292;18.598;2023-04-24T10:02:57;16.00;80.73
70271;SHT31;57680;54.292;18.598;2023-04-24T10:05:24;16.08;79.52
70271;SHT31;57680;54.292;18.598;2023-04-24T10:07:49;16.13;79.27
70271;SHT31;57680;54.292;18.598;2023-04-24T10:10:15;16.49;79.80
70271;SHT31;57680;54.292;18.598;2023-04-24T10:12:41;16.95;77.46
70271;SHT31;57680;54.292;18.598;2023-04-24T10:15:09;17.27;75.29
70271;SHT31;57680;54.292;18.598;2023-04-24T10:17:36;17.61;75.42
70271;SHT31;57680;54.292;18.598;2023-04-24T10:20:01;17.55;74.94
70271;SHT31;57680;54.292;18.598;2023-04-24T10:22:28;17.53;73.56
70271;SHT31;57680;54.292;18.598;2023-04-24T10:24:54;17.44;75.53
70271;SHT31;57680;54.292;18.598;2023-04-24T10:27:20;17.72;74.95
70271;SHT31;57680;54.292;18.598;2023-04-24T10:29:47;17.78;73.26
70271;SHT31;57680;54.292;18.598;2023-04-24T10:32:12;17.87;73.50
70271;SHT31;57680;54.292;18.598;2023-04-24T10:34:38;17.86;72.60
70271;SHT31;57680;54.292;18.598;2023-04-24T10:37:03;17.85;73.39
70271;SHT31;57680;54.292;18.598;2023-04-24T10:39:29;18.24;72.71
70271;SHT31;57680;54.292;18.598;2023-04-24T10:41:55;18.69;71.87
70271;SHT31;57680;54.292;18.598;2023-04-24T10:44:22;18.76;70.46
70271;SHT31;57680;54.292;18.598;2023-04-24T10:46:53;18.55;70.48
70271;SHT31;57680;54.292;18.598;2023-04-24T10:49:28;17.86;73.14
70271;SHT31;57680;54.292;18.598;2023-04-24T10:51:54;17.63;73.74
70271;SHT31;57680;54.292;18.598;2023-04-24T10:54:27;17.68;74.05
70271;SHT31;57680;54.292;18.598;2023-04-24T10:56:56;17.71;73.00
70271;SHT31;57680;54.292;18.598;2023-04-24T10:59:38;17.93;73.41
70271;SHT31;57680;54.292;18.598;2023-04-24T11:02:07;18.04;72.44
70271;SHT31;57680;54.292;18.598;2023-04-24T11:04:33;17.92;73.74
70271;SHT31;57680;54.292;18.598;2023-04-24T11:06:58;18.17;73.25
70271;SHT31;57680;54.292;18.598;2023-04-24T11:09:26;18.37;71.86
70271;SHT31;57680;54.292;18.598;2023-04-24T11:12:05;18.65;71.37
70271;SHT31;57680;54.292;18.598;2023-04-24T11:17:38;19.56;69.58
70271;SHT31;57680;54.292;18.598;2023-04-24T11:20:08;19.15;68.33
70271;SHT31;57680;54.292;18.598;2023-04-24T11:22:35;19.51;69.39
70271;SHT31;57680;54.292;18.598;2023-04-24T11:25:02;19.74;69.51
70271;SHT31;57680;54.292;18.598;2023-04-24T11:27:30;19.69;66.14
70271;SHT31;57680;54.292;18.598;2023-04-24T11:32:41;19.80;66.84
70271;SHT31;57680;54.292;18.598;2023-04-24T11:35:23;19.92;63.94
70271;SHT31;57680;54.292;18.598;2023-04-24T11:37:50;19.95;61.54
70271;SHT31;57680;54.292;18.598;2023-04-24T11:40:17;20.22;61.30
70271;SHT31;57680;54.292;18.598;2023-04-24T11:42:44;20.46;59.74
70271;SHT31;57680;54.292;18.598;2023-04-24T11:45:12;20.63;56.95
70271;SHT31;57680;54.292;18.598;2023-04-24T11:47:38;20.72;57.58
70271;SHT31;57680;54.292;18.598;2023-04-24T11:50:07;20.57;57.69
70271;SHT31;57680;54.292;18.598;2023-04-24T11:52:36;20.45;57.64
70271;SHT31;57680;54.292;18.598;2023-04-24T11:55:02;20.35;56.19
70271;SHT31;57680;54.292;18.598;2023-04-24T11:57:27;20.32;56.39
70271;SHT31;57680;54.292;18.598;2023-04-24T11:59:53;20.22;55.59
70271;SHT31;57680;54.292;18.598;2023-04-24T12:02:22;20.28;55.70
70271;SHT31;57680;54.292;18.598;2023-04-24T12:04:47;20.24;55.57
70271;SHT31;57680;54.292;18.598;2023-04-24T12:07:13;20.04;54.99
70271;SHT31;57680;54.292;18.598;2023-04-24T12:09:48;19.90;55.41
70271;SHT31;57680;54.292;18.598;2023-04-24T12:12:17;19.84;55.06
70271;SHT31;57680;54.292;18.598;2023-04-24T12:14:50;19.63;55.72
70271;SHT31;57680;54.292;18.598;2023-04-24T12:17:24;19.50;56.54
70271;SHT31;57680;54.292;18.598;2023-04-24T12:19:49;19.49;57.04
70271;SHT31;57680;54.292;18.598;2023-04-24T12:22:14;19.37;57.11
70271;SHT31;57680;54.292;18.598;2023-04-24T12:24:57;19.59;57.84
70271;SHT31;57680;54.292;18.598;2023-04-24T12:27:22;19.77;55.37
70271;SHT31;57680;54.292;18.598;2023-04-24T12:30:02;20.01;55.09
70271;SHT31;57680;54.292;18.598;2023-04-24T12:32:28;20.04;53.57
70271;SHT31;57680;54.292;18.598;2023-04-24T12:34:54;20.00;53.02
70271;SHT31;57680;54.292;18.598;2023-04-24T12:37:21;20.02;54.01
70271;SHT31;57680;54.292;18.598;2023-04-24T12:40:20;20.11;53.80
70271;SHT31;57680;54.292;18.598;2023-04-24T12:42:50;20.14;55.37
70271;SHT31;57680;54.292;18.598;2023-04-24T12:45:18;19.97;54.83
70271;SHT31;57680;54.292;18.598;2023-04-24T12:47:45;19.80;54.31
70271;SHT31;57680;54.292;18.598;2023-04-24T12:50:13;19.66;54.42
70271;SHT31;57680;54.292;18.598;2023-04-24T12:52:39;19.61;55.83
70271;SHT31;57680;54.292;18.598;2023-04-24T12:55:05;19.59;55.47
70271;SHT31;57680;54.292;18.598;2023-04-24T12:57:31;19.57;55.50
70271;SHT31;57680;54.292;18.598;2023-04-24T12:59:58;19.54;55.39
70271;SHT31;57680;54.292;18.598;2023-04-24T13:02:25;19.61;55.62
70271;SHT31;57680;54.292;18.598;2023-04-24T13:04:52;19.69;55.79
70271;SHT31;57680;54.292;18.598;2023-04-24T13:07:17;19.73;54.95
70271;SHT31;57680;54.292;18.598;2023-04-24T13:09:44;19.80;55.38
70271;SHT31;57680;54.292;18.598;2023-04-24T13:12:10;19.69;54.47
70271;SHT31;57680;54.292;18.598;2023-04-24T13:14:36;19.73;54.96
70271;SHT31;57680;54.292;18.598;2023-04-24T13:17:01;19.75;54.81
70271;SHT31;57680;54.292;18.598;2023-04-24T13:19:27;19.80;54.31
70271;SHT31;57680;54.292;18.598;2023-04-24T13:21:55;19.84;53.17
70271;SHT31;57680;54.292;18.598;2023-04-24T13:24:20;19.94;53.40
70271;SHT31;57680;54.292;18.598;2023-04-24T13:26:45;20.14;53.68
70271;SHT31;57680;54.292;18.598;2023-04-24T13:29:11;20.31;50.85
70271;SHT31;57680;54.292;18.598;2023-04-24T13:31:36;20.51;50.17
70271;SHT31;57680;54.292;18.598;2023-04-24T13:34:02;20.56;49.95
70271;SHT31;57680;54.292;18.598;2023-04-24T13:36:28;20.65;48.92
70271;SHT31;57680;54.292;18.598;2023-04-24T13:38:53;20.56;49.52
70271;SHT31;57680;54.292;18.598;2023-04-24T13:41:18;20.57;48.72
70271;SHT31;57680;54.292;18.598;2023-04-24T13:43:44;20.65;49.36
70271;SHT31;57680;54.292;18.598;2023-04-24T13:46:09;20.66;49.24
70271;SHT31;57680;54.292;18.598;2023-04-24T13:48:34;20.48;49.33
70271;SHT31;57680;54.292;18.598;2023-04-24T13:51:00;20.26;49.38
70271;SHT31;57680;54.292;18.598;2023-04-24T13:53:25;20.10;50.56
70271;SHT31;57680;54.292;18.598;2023-04-24T13:55:51;20.05;50.97
70271;SHT31;57680;54.292;18.598;2023-04-24T13:58:16;19.94;51.75
70271;SHT31;57680;54.292;18.598;2023-04-24T14:00:41;19.95;52.74
70271;SHT31;57680;54.292;18.598;2023-04-24T14:03:07;20.08;52.02
70271;SHT31;57680;54.292;18.598;2023-04-24T14:05:32;20.22;51.69
70271;SHT31;57680;54.292;18.598;2023-04-24T14:07:58;20.41;52.19
70271;SHT31;57680;54.292;18.598;2023-04-24T14:10:23;20.33;51.76
70271;SHT31;57680;54.292;18.598;2023-04-24T14:12:48;20.29;52.96
70271;SHT31;57680;54.292;18.598;2023-04-24T14:15:14;20.18;53.18
70271;SHT31;57680;54.292;18.598;2023-04-24T14:17:39;20.08;53.08
70271;SHT31;57680;54.292;18.598;2023-04-24T14:20:05;19.91;53.75
70271;SHT31;57680;54.292;18.598;2023-04-24T14:22:31;19.88;54.06
70271;SHT31;57680;54.292;18.598;2023-04-24T14:24:56;19.90;54.81
70271;SHT31;57680;54.292;18.598;2023-04-24T14:27:21;19.94;54.95
70271;SHT31;57680;54.292;18.598;2023-04-24T14:29:47;19.98;55.97
70271;SHT31;57680;54.292;18.598;2023-04-24T14:32:12;20.01;55.36
70271;SHT31;57680;54.292;18.598;2023-04-24T14:34:37;20.11;56.20
70271;SHT31;57680;54.292;18.598;2023-04-24T14:37:03;20.15;55.15
70271;SHT31;57680;54.292;18.598;2023-04-24T14:39:28;20.11;54.42
70271;SHT31;57680;54.292;18.598;2023-04-24T14:41:54;20.15;54.36
70271;SHT31;57680;54.292;18.598;2023-04-24T14:44:19;19.94;53.82
70271;SHT31;57680;54.292;18.598;2023-04-24T14:46:44;19.81;54.02
70271;SHT31;57680;54.292;18.598;2023-04-24T14:49:10;19.88;54.62
70271;SHT31;57680;54.292;18.598;2023-04-24T14:51:36;19.94;54.66
70271;SHT31;57680;54.292;18.598;2023-04-24T14:54:01;20.01;54.99
70271;SHT31;57680;54.292;18.598;2023-04-24T14:56:27;20.08;55.98
70271;SHT31;57680;54.292;18.598;2023-04-24T14:58:52;20.10;55.04
70271;SHT31;57680;54.292;18.598;2023-04-24T15:01:18;19.85;55.99
70271;SHT31;57680;54.292;18.598;2023-04-24T15:03:43;19.64;56.93
70271;SHT31;57680;54.292;18.598;2023-04-24T15:06:08;19.37;56.61
70271;SHT31;57680;54.292;18.598;2023-04-24T15:08:34;19.22;57.12
70271;SHT31;57680;54.292;18.598;2023-04-24T15:10:59;19.05;58.43
70271;SHT31;57680;54.292;18.598;2023-04-24T15:13:24;18.89;59.73
70271;SHT31;57680;54.292;18.598;2023-04-24T15:15:50;18.75;60.13
70271;SHT31;57680;54.292;18.598;2023-04-24T15:18:15;18.68;60.16
70271;SHT31;57680;54.292;18.598;2023-04-24T15:20:40;18.64;60.07
70271;SHT31;57680;54.292;18.598;2023-04-24T15:23:08;18.60;59.97
70271;SHT31;57680;54.292;18.598;2023-04-24T15:25:33;18.60;59.83
70271;SHT31;57680;54.292;18.598;2023-04-24T15:27:59;18.57;60.22
70271;SHT31;57680;54.292;18.598;2023-04-24T15:30:24;18.52;59.90